sensor_id;sensor_type;location;lat;lon;timestamp;pressure;altitude;pressure_sealevel;temperature;humidity
21594;BME280;10959;51.328;7.322;2024-01-30T00:01:00;100090.44;;;8.78;66.98
21594;BME280;10959;51.328;7.322;2024-01-30T00:03:28;100094.78;;;8.79;66.94
21594;BME280;10959;51.328;7.322;2024-01-30T00:05:55;100089.59;;;8.78;66.71
21594;BME280;10959;51.328;7.322;2024-01-30T00:08:22;100090.84;;;8.75;66.82
21594;BME280;10959;51.328;7.322;2024-01-30T00:10:48;100085.47;;;8.75;67.02
21594;BME280;10959;51.328;7.322;2024-01-30T00:13:15;100090.03;;;8.75;66.99
21594;BME280;10959;51.328;7.322;2024-01-30T00:15:43;100092.50;;;8.76;66.85
21594;BME280;10959;51.328;7.322;2024-01-30T00:18:10;100084.81;;;8.73;67.18
21594;BME280;10959;51.328;7.322;2024-01-30T00:20:38;100098.94;;;8.75;67.16
21594;BME280;10959;51.328;7.322;2024-01-30T00:23:04;100087.94;;;8.77;66.77
21594;BME280;10959;51.328;7.322;2024-01-30T00:25:30;100095.59;;;8.80;66.75
21594;BME280;10959;51.328;7.322;2024-01-30T00:27:58;100086.06;;;8.77;66.88
21594;BME280;10959;51.328;7.322;2024-01-30T00:30:24;100085.88;;;8.79;67.11
21594;BME280;10959;51.328;7.322;2024-01-30T00:32:51;100087.53;;;8.80;66.95
21594;BME280;10959;51.328;7.322;2024-01-30T00:35:17;100078.81;;;8.78;66.98
21594;BME280;10959;51.328;7.322;2024-01-30T00:37:45;100084.63;;;8.81;67.01
21594;BME280;10959;51.328;7.322;2024-01-30T00:40:12;100080.06;;;8.82;67.39
21594;BME280;10959;51.328;7.322;2024-01-30T00:42:40;100074.25;;;8.85;67.06
21594;BME280;10959;51.328;7.322;2024-01-30T00:45:12;100079.22;;;8.81;67.54
21594;BME280;10959;51.328;7.322;2024-01-30T00:47:38;100073.00;;;8.88;67.21
21594;BME280;10959;51.328;7.322;2024-01-30T00:50:05;100073.84;;;8.88;67.49
21594;BME280;10959;51.328;7.322;2024-01-30T00:52:32;100071.94;;;8.89;67.20
21594;BME280;10959;51.328;7.322;2024-01-30T00:55:00;100070.72;;;8.91;67.01
21594;BME280;10959;51.328;7.322;2024-01-30T00:57:26;100070.06;;;8.89;67.05
21594;BME280;10959;51.328;7.322;2024-01-30T00:59:53;100070.91;;;8.90;66.87
21594;BME280;10959;51.328;7.322;2024-01-30T01:02:19;100076.72;;;8.87;66.83
21594;BME280;10959;51.328;7.322;2024-01-30T01:04:46;100071.31;;;8.87;66.89
21594;BME280;10959;51.328;7.322;2024-01-30T01:07:12;100072.16;;;8.87;67.23
21594;BME280;10959;51.328;7.322;2024-01-30T01:09:38;100072.34;;;8.86;67.12
21594;BME280;10959;51.328;7.322;2024-01-30T01:12:07;100069.88;;;8.84;67.38
21594;BME280;10959;51.328;7.322;2024-01-30T01:14:33;100069.88;;;8.84;67.14
21594;BME280;10959;51.328;7.322;2024-01-30T01:16:59;100064.69;;;8.82;67.20
21594;BME280;10959;51.328;7.322;2024-01-30T01:19:26;100079.00;;;8.83;67.36
21594;BME280;10959;51.328;7.322;2024-01-30T01:21:52;100069.06;;;8.83;67.50
21594;BME280;10959;51.328;7.322;2024-01-30T01:24:19;100067.63;;;8.81;67.25
21594;BME280;10959;51.328;7.322;2024-01-30T01:26:45;100073.19;;;8.86;67.05
21594;BME280;10959;51.328;7.322;2024-01-30T01:29:13;100070.09;;;8.82;67.39
21594;BME280;10959;51.328;7.322;2024-01-30T01:31:41;100071.97;;;8.82;67.43
21594;BME280;10959;51.328;7.322;2024-01-30T01:34:09;100071.75;;;8.83;67.21
21594;BME280;10959;51.328;7.322;2024-01-30T01:36:35;100070.09;;;8.82;66.90
21594;BME280;10959;51.328;7.322;2024-01-30T01:39:02;100071.16;;;8.81;66.79
21594;BME280;10959;51.328;7.322;2024-01-30T01:41:29;100072.16;;;8.80;66.88
21594;BME280;10959;51.328;7.322;2024-01-30T01:43:56;100071.75;;;8.77;67.27
21594;BME280;10959;51.328;7.322;2024-01-30T01:46:27;100073.00;;;8.74;66.71
21594;BME280;10959;51.328;7.322;2024-01-30T01:48:54;100071.34;;;8.73;66.97
21594;BME280;10959;51.328;7.322;2024-01-30T01:51:21;100067.00;;;8.72;66.92
21594;BME280;10959;51.328;7.322;2024-01-30T01:53:48;100068.44;;;8.75;67.07
21594;BME280;10959;51.328;7.322;2024-01-30T01:56:15;100069.69;;;8.72;67.61
21594;BME280;10959;51.328;7.322;2024-01-30T01:58:41;100066.78;;;8.74;67.52
21594;BME280;10959;51.328;7.322;2024-01-30T02:01:11;100063.25;;;8.73;67.41
21594;BME280;10959;51.328;7.322;2024-01-30T02:03:40;100055.56;;;8.70;67.56
21594;BME280;10959;51.328;7.322;2024-01-30T02:06:07;100052.69;;;8.72;67.68
21594;BME280;10959;51.328;7.322;2024-01-30T02:08:34;100053.09;;;8.75;67.65
21594;BME280;10959;51.328;7.322;2024-01-30T02:11:01;100057.25;;;8.78;67.69
21594;BME280;10959;51.328;7.322;2024-01-30T02:13:27;100045.84;;;8.76;67.47
21594;BME280;10959;51.328;7.322;2024-01-30T02:15:54;100049.34;;;8.76;67.94
21594;BME280;10959;51.328;7.322;2024-01-30T02:18:20;100046.88;;;8.81;67.72
21594;BME280;10959;51.328;7.322;2024-01-30T02:20:48;100048.50;;;8.82;67.74
21594;BME280;10959;51.328;7.322;2024-01-30T02:23:19;100050.41;;;8.82;67.79
21594;BME280;10959;51.328;7.322;2024-01-30T02:25:46;100047.69;;;8.82;67.83
21594;BME280;10959;51.328;7.322;2024-01-30T02:28:12;100051.84;;;8.85;67.85
21594;BME280;10959;51.328;7.322;2024-01-30T02:30:39;100041.06;;;8.85;68.13
21594;BME280;10959;51.328;7.322;2024-01-30T02:33:06;100043.53;;;8.86;67.78
21594;BME280;10959;51.328;7.322;2024-01-30T02:35:32;100042.69;;;8.86;67.82
21594;BME280;10959;51.328;7.322;2024-01-30T02:38:00;100034.41;;;8.87;67.77
21594;BME280;10959;51.328;7.322;2024-01-30T02:40:28;100041.06;;;8.85;67.68
21594;BME280;10959;51.328;7.322;2024-01-30T02:42:54;100036.69;;;8.83;67.90
21594;BME280;10959;51.328;7.322;2024-01-30T02:45:21;100044.59;;;8.85;68.18
21594;BME280;10959;51.328;7.322;2024-01-30T02:47:47;100034.00;;;8.83;67.76
21594;BME280;10959;51.328;7.322;2024-01-30T02:50:14;100040.81;;;8.86;67.93
21594;BME280;10959;51.328;7.322;2024-01-30T02:52:41;100034.41;;;8.87;68.13
21594;BME280;10959;51.328;7.322;2024-01-30T02:55:09;100035.22;;;8.88;68.04
21594;BME280;10959;51.328;7.322;2024-01-30T02:57:36;100032.13;;;8.91;67.47
21594;BME280;10959;51.328;7.322;2024-01-30T03:00:04;100028.59;;;8.90;67.88
21594;BME280;10959;51.328;7.322;2024-01-30T03:02:31;100024.03;;;8.91;68.14
21594;BME280;10959;51.328;7.322;2024-01-30T03:04:58;100022.97;;;8.92;68.05
21594;BME280;10959;51.328;7.322;2024-01-30T03:07:24;100023.59;;;8.94;67.85
21594;BME280;10959;51.328;7.322;2024-01-30T03:09:50;100007.00;;;8.90;67.95
21594;BME280;10959;51.328;7.322;2024-01-30T03:12:17;100008.44;;;8.93;67.81
21594;BME280;10959;51.328;7.322;2024-01-30T03:14:45;100011.56;;;8.96;67.45
21594;BME280;10959;51.328;7.322;2024-01-30T03:17:12;100012.38;;;8.97;67.84
21594;BME280;10959;51.328;7.322;2024-01-30T03:19:38;100011.13;;;8.99;68.02
21594;BME280;10959;51.328;7.322;2024-01-30T03:22:05;99989.97;;;8.96;67.84
21594;BME280;10959;51.328;7.322;2024-01-30T03:24:32;100001.16;;;9.00;67.63
21594;BME280;10959;51.328;7.322;2024-01-30T03:26:59;99993.69;;;9.02;67.68
21594;BME280;10959;51.328;7.322;2024-01-30T03:29:25;99995.94;;;9.05;67.72
21594;BME280;10959;51.328;7.322;2024-01-30T03:31:53;99987.84;;;9.05;67.31
21594;BME280;10959;51.328;7.322;2024-01-30T03:34:19;99979.16;;;9.03;67.51
21594;BME280;10959;51.328;7.322;2024-01-30T03:36:46;99987.84;;;9.05;67.66
21594;BME280;10959;51.328;7.322;2024-01-30T03:39:12;99983.50;;;9.04;67.35
21594;BME280;10959;51.328;7.322;2024-01-30T03:41:41;99987.84;;;9.05;67.42
21594;BME280;10959;51.328;7.322;2024-01-30T03:44:08;99988.88;;;9.04;67.35
21594;BME280;10959;51.328;7.322;2024-01-30T03:46:35;99994.09;;;9.05;66.98
21594;BME280;10959;51.328;7.322;2024-01-30T03:49:02;99989.53;;;9.06;67.10
21594;BME280;10959;51.328;7.322;2024-01-30T03:51:29;99991.22;;;9.00;67.34
21594;BME280;10959;51.328;7.322;2024-01-30T03:53:55;99986.63;;;9.01;67.22
21594;BME280;10959;51.328;7.322;2024-01-30T03:56:22;99982.06;;;9.01;67.23
21594;BME280;10959;51.328;7.322;2024-01-30T03:58:51;99980.63;;;8.99;67.61
21594;BME280;10959;51.328;7.322;2024-01-30T04:01:17;99977.50;;;9.02;67.51
21594;BME280;10959;51.328;7.322;2024-01-30T04:03:44;99982.88;;;9.02;67.17
21594;BME280;10959;51.328;7.322;2024-01-30T04:06:12;99981.22;;;9.01;67.53
21594;BME280;10959;51.328;7.322;2024-01-30T04:08:38;99972.53;;;8.99;66.98
21594;BME280;10959;51.328;7.322;2024-01-30T04:11:05;99970.84;;;8.98;67.36
21594;BME280;10959;51.328;7.322;2024-01-30T04:13:32;99974.22;;;8.93;67.63
21594;BME280;10959;51.328;7.322;2024-01-30T04:15:59;99977.09;;;8.98;67.25
21594;BME280;10959;51.328;7.322;2024-01-30T04:18:26;99970.44;;;9.01;67.14
21594;BME280;10959;51.328;7.322;2024-01-30T04:20:53;99974.59;;;9.03;67.52
21594;BME280;10959;51.328;7.322;2024-01-30T04:23:20;99978.09;;;9.04;67.37
21594;BME280;10959;51.328;7.322;2024-01-30T04:25:47;99968.78;;;9.00;67.35
21594;BME280;10959;51.328;7.322;2024-01-30T04:28:13;99961.31;;;9.02;67.37
21594;BME280;10959;51.328;7.322;2024-01-30T04:30:40;99963.41;;;9.00;67.61
21594;BME280;10959;51.328;7.322;2024-01-30T04:33:06;99965.03;;;9.01;67.40
21594;BME280;10959;51.328;7.322;2024-01-30T04:35:33;99956.34;;;8.99;67.64
21594;BME280;10959;51.328;7.322;2024-01-30T04:37:59;99962.34;;;9.01;67.84
21594;BME280;10959;51.328;7.322;2024-01-30T04:40:27;99966.69;;;9.02;67.51
21594;BME280;10959;51.328;7.322;2024-01-30T04:42:53;99963.41;;;9.00;67.25
21594;BME280;10959;51.328;7.322;2024-01-30T04:45:20;99956.75;;;8.96;67.46
21594;BME280;10959;51.328;7.322;2024-01-30T04:47:46;99956.34;;;8.99;67.93
21594;BME280;10959;51.328;7.322;2024-01-30T04:50:13;99957.38;;;8.98;67.85
21594;BME280;10959;51.328;7.322;2024-01-30T04:52:39;99957.78;;;8.95;67.86
21594;BME280;10959;51.328;7.322;2024-01-30T04:55:07;99954.28;;;8.94;67.47
21594;BME280;10959;51.328;7.322;2024-01-30T04:57:35;99955.09;;;8.95;67.57
21594;BME280;10959;51.328;7.322;2024-01-30T05:00:02;99953.47;;;8.94;67.31
21594;BME280;10959;51.328;7.322;2024-01-30T05:02:30;99949.53;;;8.90;67.83
21594;BME280;10959;51.328;7.322;2024-01-30T05:04:57;99955.75;;;8.90;67.36
21594;BME280;10959;51.328;7.322;2024-01-30T05:07:24;99947.47;;;8.85;67.72
21594;BME280;10959;51.328;7.322;2024-01-30T05:09:50;99955.94;;;8.89;67.43
21594;BME280;10959;51.328;7.322;2024-01-30T05:12:17;99954.50;;;8.86;67.66
21594;BME280;10959;51.328;7.322;2024-01-30T05:14:44;99944.97;;;8.83;67.78
21594;BME280;10959;51.328;7.322;2024-01-30T05:17:11;99953.47;;;8.87;67.46
21594;BME280;10959;51.328;7.322;2024-01-30T05:19:38;99947.91;;;8.82;67.88
21594;BME280;10959;51.328;7.322;2024-01-30T05:22:04;99941.69;;;8.81;67.89
21594;BME280;10959;51.328;7.322;2024-01-30T05:24:31;99939.81;;;8.82;67.62
21594;BME280;10959;51.328;7.322;2024-01-30T05:26:57;99943.31;;;8.82;67.83
21594;BME280;10959;51.328;7.322;2024-01-30T05:29:24;99939.19;;;8.80;67.70
21594;BME280;10959;51.328;7.322;2024-01-30T05:31:52;99948.09;;;8.80;67.77
21594;BME280;10959;51.328;7.322;2024-01-30T05:34:18;99945.63;;;8.79;67.79
21594;BME280;10959;51.328;7.322;2024-01-30T05:36:45;99943.56;;;8.74;67.87
21594;BME280;10959;51.328;7.322;2024-01-30T05:39:11;99951.03;;;8.72;68.07
21594;BME280;10959;51.328;7.322;2024-01-30T05:41:38;99941.72;;;8.68;68.14
21594;BME280;10959;51.328;7.322;2024-01-30T05:44:05;99931.34;;;8.65;68.58
21594;BME280;10959;51.328;7.322;2024-01-30T05:46:31;99941.13;;;8.66;68.44
21594;BME280;10959;51.328;7.322;2024-01-30T05:48:59;99936.13;;;8.70;68.50
21594;BME280;10959;51.328;7.322;2024-01-30T05:51:25;99933.00;;;8.73;68.40
21594;BME280;10959;51.328;7.322;2024-01-30T05:53:53;99939.03;;;8.68;68.48
21594;BME280;10959;51.328;7.322;2024-01-30T05:56:19;99938.59;;;8.71;68.53
21594;BME280;10959;51.328;7.322;2024-01-30T05:58:46;99942.72;;;8.74;68.41
21594;BME280;10959;51.328;7.322;2024-01-30T06:01:12;99953.75;;;8.72;68.29
21594;BME280;10959;51.328;7.322;2024-01-30T06:03:39;99944.41;;;8.75;68.54
21594;BME280;10959;51.328;7.322;2024-01-30T06:06:07;99947.94;;;8.75;68.22
21594;BME280;10959;51.328;7.322;2024-01-30T06:08:33;99948.13;;;8.74;68.36
21594;BME280;10959;51.328;7.322;2024-01-30T06:11:00;99940.25;;;8.72;68.64
21594;BME280;10959;51.328;7.322;2024-01-30T06:13:26;99952.09;;;8.71;68.15
21594;BME280;10959;51.328;7.322;2024-01-30T06:15:55;99950.63;;;8.69;68.12
21594;BME280;10959;51.328;7.322;2024-01-30T06:18:22;99958.13;;;8.67;68.49
21594;BME280;10959;51.328;7.322;2024-01-30T06:20:48;99960.19;;;8.65;68.44
21594;BME280;10959;51.328;7.322;2024-01-30T06:23:16;99956.03;;;8.62;68.41
21594;BME280;10959;51.328;7.322;2024-01-30T06:25:43;99955.44;;;8.60;68.54
21594;BME280;10959;51.328;7.322;2024-01-30T06:28:09;99954.38;;;8.61;68.75
21594;BME280;10959;51.328;7.322;2024-01-30T06:30:36;99954.81;;;8.58;68.92
21594;BME280;10959;51.328;7.322;2024-01-30T06:33:02;99951.50;;;8.56;68.51
21594;BME280;10959;51.328;7.322;2024-01-30T06:35:28;99955.03;;;8.57;68.92
21594;BME280;10959;51.328;7.322;2024-01-30T06:37:55;99958.97;;;8.54;68.96
21594;BME280;10959;51.328;7.322;2024-01-30T06:40:23;99952.94;;;8.52;68.86
21594;BME280;10959;51.328;7.322;2024-01-30T06:42:49;99946.53;;;8.53;68.72
21594;BME280;10959;51.328;7.322;2024-01-30T06:45:16;99944.66;;;8.54;68.78
21594;BME280;10959;51.328;7.322;2024-01-30T06:47:42;99948.19;;;8.54;68.75
21594;BME280;10959;51.328;7.322;2024-01-30T06:50:09;99947.38;;;8.54;68.64
21594;BME280;10959;51.328;7.322;2024-01-30T06:52:36;99939.91;;;8.49;68.54
21594;BME280;10959;51.328;7.322;2024-01-30T06:55:02;99939.28;;;8.47;68.85
21594;BME280;10959;51.328;7.322;2024-01-30T06:57:30;99945.72;;;8.46;68.86
21594;BME280;10959;51.328;7.322;2024-01-30T06:59:57;99944.25;;;8.50;68.71
21594;BME280;10959;51.328;7.322;2024-01-30T07:02:23;99941.97;;;8.54;68.87
21594;BME280;10959;51.328;7.322;2024-01-30T07:04:50;99932.44;;;8.51;68.92
21594;BME280;10959;51.328;7.322;2024-01-30T07:07:16;99943.22;;;8.51;69.06
21594;BME280;10959;51.328;7.322;2024-01-30T07:09:43;99937.41;;;8.54;69.62
21594;BME280;10959;51.328;7.322;2024-01-30T07:12:10;99937.00;;;8.57;69.71
21594;BME280;10959;51.328;7.322;2024-01-30T07:14:37;99931.19;;;8.60;69.31
21594;BME280;10959;51.328;7.322;2024-01-30T07:17:04;99936.56;;;8.60;69.70
21594;BME280;10959;51.328;7.322;2024-01-30T07:19:31;99941.13;;;8.66;69.55
21594;BME280;10959;51.328;7.322;2024-01-30T07:21:57;99950.22;;;8.65;69.77
21594;BME280;10959;51.328;7.322;2024-01-30T07:24:24;99939.25;;;8.67;69.56
21594;BME280;10959;51.328;7.322;2024-01-30T07:26:50;99946.69;;;8.71;69.57
21594;BME280;10959;51.328;7.322;2024-01-30T07:29:17;99951.47;;;8.76;69.97
21594;BME280;10959;51.328;7.322;2024-01-30T07:31:45;99953.50;;;8.80;69.23
21594;BME280;10959;51.328;7.322;2024-01-30T07:34:11;99957.44;;;8.85;69.34
21594;BME280;10959;51.328;7.322;2024-01-30T07:36:38;99960.75;;;8.87;68.82
21594;BME280;10959;51.328;7.322;2024-01-30T07:39:04;99950.59;;;8.82;69.28
21594;BME280;10959;51.328;7.322;2024-01-30T07:41:31;99952.66;;;8.87;68.77
21594;BME280;10959;51.328;7.322;2024-01-30T07:43:57;99963.00;;;8.90;69.09
21594;BME280;10959;51.328;7.322;2024-01-30T07:46:24;99959.28;;;8.91;68.97
21594;BME280;10959;51.328;7.322;2024-01-30T07:48:52;99959.88;;;8.93;68.86
21594;BME280;10959;51.328;7.322;2024-01-30T07:51:18;99966.31;;;8.92;68.80
21594;BME280;10959;51.328;7.322;2024-01-30T07:53:45;99967.97;;;8.93;68.84
21594;BME280;10959;51.328;7.322;2024-01-30T07:56:11;99969.66;;;8.94;68.69
21594;BME280;10959;51.328;7.322;2024-01-30T07:58:38;99964.84;;;8.96;69.04
21594;BME280;10959;51.328;7.322;2024-01-30T08:01:04;99971.50;;;9.00;69.02
21594;BME280;10959;51.328;7.322;2024-01-30T08:03:30;99975.41;;;9.04;69.16
21594;BME280;10959;51.328;7.322;2024-01-30T08:05:58;99971.25;;;9.08;68.87
21594;BME280;10959;51.328;7.322;2024-01-30T08:08:25;99970.63;;;9.12;68.64
21594;BME280;10959;51.328;7.322;2024-01-30T08:10:52;99968.28;;;9.16;68.63
21594;BME280;10959;51.328;7.322;2024-01-30T08:13:18;99969.94;;;9.17;68.95
21594;BME280;10959;51.328;7.322;2024-01-30T08:15:45;99970.56;;;9.19;69.30
21594;BME280;10959;51.328;7.322;2024-01-30T08:18:11;99965.16;;;9.19;69.02
21594;BME280;10959;51.328;7.322;2024-01-30T08:20:38;99959.97;;;9.24;68.95
21594;BME280;10959;51.328;7.322;2024-01-30T08:23:05;99976.94;;;9.31;68.92
21594;BME280;10959;51.328;7.322;2024-01-30T08:25:32;99984.00;;;9.32;69.15
21594;BME280;10959;51.328;7.322;2024-01-30T08:27:58;99977.13;;;9.36;68.76
21594;BME280;10959;51.328;7.322;2024-01-30T08:30:25;99970.66;;;9.37;69.08
21594;BME280;10959;51.328;7.322;2024-01-30T08:32:51;99969.63;;;9.38;68.94
21594;BME280;10959;51.328;7.322;2024-01-30T08:35:18;99981.44;;;9.44;68.77
21594;BME280;10959;51.328;7.322;2024-01-30T08:37:44;99962.34;;;9.45;68.66
21594;BME280;10959;51.328;7.322;2024-01-30T08:40:12;99963.53;;;9.49;68.61
21594;BME280;10959;51.328;7.322;2024-01-30T08:42:39;99960.63;;;9.51;68.91
21594;BME280;10959;51.328;7.322;2024-01-30T08:45:06;99958.94;;;9.56;68.57
21594;BME280;10959;51.328;7.322;2024-01-30T08:47:33;99955.63;;;9.54;68.92
21594;BME280;10959;51.328;7.322;2024-01-30T08:50:00;99961.63;;;9.56;69.09
21594;BME280;10959;51.328;7.322;2024-01-30T08:52:26;99976.81;;;9.57;68.92
21594;BME280;10959;51.328;7.322;2024-01-30T08:54:52;99977.41;;;9.59;69.29
21594;BME280;10959;51.328;7.322;2024-01-30T08:57:21;99978.19;;;9.66;68.61
21594;BME280;10959;51.328;7.322;2024-01-30T08:59:47;99981.28;;;9.70;68.57
21594;BME280;10959;51.328;7.322;2024-01-30T09:02:14;99983.75;;;9.71;68.42
21594;BME280;10959;51.328;7.322;2024-01-30T09:04:41;99990.78;;;9.79;68.49
21594;BME280;10959;51.328;7.322;2024-01-30T09:07:08;99994.53;;;9.78;68.21
21594;BME280;10959;51.328;7.322;2024-01-30T09:09:35;99995.38;;;9.78;68.10
21594;BME280;10959;51.328;7.322;2024-01-30T09:12:02;99995.38;;;9.78;68.21
21594;BME280;10959;51.328;7.322;2024-01-30T09:14:33;99997.00;;;9.79;68.28
21594;BME280;10959;51.328;7.322;2024-01-30T09:17:00;100007.00;;;9.79;68.17
21594;BME280;10959;51.328;7.322;2024-01-30T09:19:26;100007.81;;;9.79;68.07
21594;BME280;10959;51.328;7.322;2024-01-30T09:21:53;100009.47;;;9.80;68.27
21594;BME280;10959;51.328;7.322;2024-01-30T09:24:19;100019.63;;;9.85;68.03
21594;BME280;10959;51.328;7.322;2024-01-30T09:26:46;100015.22;;;9.90;68.10
21594;BME280;10959;51.328;7.322;2024-01-30T09:29:12;100017.88;;;9.97;68.03
21594;BME280;10959;51.328;7.322;2024-01-30T09:31:42;100017.66;;;9.99;67.69
21594;BME280;10959;51.328;7.322;2024-01-30T09:34:09;100029.47;;;10.04;68.05
21594;BME280;10959;51.328;7.322;2024-01-30T09:36:35;100027.00;;;10.03;67.75
21594;BME280;10959;51.328;7.322;2024-01-30T09:39:02;100029.03;;;10.07;67.94
21594;BME280;10959;51.328;7.322;2024-01-30T09:41:32;100034.66;;;10.06;68.23
21594;BME280;10959;51.328;7.322;2024-01-30T09:44:00;100037.31;;;10.12;68.16
21594;BME280;10959;51.328;7.322;2024-01-30T09:46:28;100030.25;;;10.11;67.90
21594;BME280;10959;51.328;7.322;2024-01-30T09:48:57;100033.59;;;10.13;67.73
21594;BME280;10959;51.328;7.322;2024-01-30T09:51:25;100033.78;;;10.12;68.14
21594;BME280;10959;51.328;7.322;2024-01-30T09:53:53;100036.69;;;10.17;67.71
21594;BME280;10959;51.328;7.322;2024-01-30T09:56:20;100032.94;;;10.18;68.02
21594;BME280;10959;51.328;7.322;2024-01-30T09:58:47;100025.59;;;10.25;67.70
21594;BME280;10959;51.328;7.322;2024-01-30T10:01:15;100031.19;;;10.30;67.70
21594;BME280;10959;51.328;7.322;2024-01-30T10:03:44;100032.38;;;10.34;67.70
21594;BME280;10959;51.328;7.322;2024-01-30T10:06:12;100026.91;;;10.40;67.71
21594;BME280;10959;51.328;7.322;2024-01-30T10:08:39;100022.03;;;10.49;67.69
21594;BME280;10959;51.328;7.322;2024-01-30T10:11:05;100016.56;;;10.56;67.43
21594;BME280;10959;51.328;7.322;2024-01-30T10:13:32;100017.56;;;10.61;67.56
21594;BME280;10959;51.328;7.322;2024-01-30T10:15:59;100022.06;;;10.67;67.31
21594;BME280;10959;51.328;7.322;2024-01-30T10:18:28;100009.91;;;10.76;67.33
21594;BME280;10959;51.328;7.322;2024-01-30T10:20:54;100029.38;;;10.85;67.00
21594;BME280;10959;51.328;7.322;2024-01-30T10:23:22;100018.50;;;10.91;66.95
21594;BME280;10959;51.328;7.322;2024-01-30T10:25:50;100021.81;;;10.93;66.77
21594;BME280;10959;51.328;7.322;2024-01-30T10:28:17;100026.47;;;11.05;66.68
21594;BME280;10959;51.328;7.322;2024-01-30T10:30:43;100021.38;;;11.15;66.53
21594;BME280;10959;51.328;7.322;2024-01-30T10:33:10;100016.84;;;11.27;66.35
21594;BME280;10959;51.328;7.322;2024-01-30T10:35:36;100024.97;;;11.27;66.20
21594;BME280;10959;51.328;7.322;2024-01-30T10:38:05;100017.31;;;11.24;66.41
21594;BME280;10959;51.328;7.322;2024-01-30T10:40:35;100023.91;;;11.28;66.22
21594;BME280;10959;51.328;7.322;2024-01-30T10:43:04;100019.31;;;11.28;66.22
21594;BME280;10959;51.328;7.322;2024-01-30T10:45:31;100019.69;;;11.32;66.17
21594;BME280;10959;51.328;7.322;2024-01-30T10:47:58;100017.94;;;11.37;65.99
21594;BME280;10959;51.328;7.322;2024-01-30T10:50:26;100011.63;;;11.43;65.99
21594;BME280;10959;51.328;7.322;2024-01-30T10:52:54;100001.53;;;11.50;66.05
21594;BME280;10959;51.328;7.322;2024-01-30T10:55:21;100002.78;;;11.66;65.85
21594;BME280;10959;51.328;7.322;2024-01-30T10:57:49;100006.50;;;11.83;65.77
21594;BME280;10959;51.328;7.322;2024-01-30T11:00:17;100001.03;;;12.01;65.34
21594;BME280;10959;51.328;7.322;2024-01-30T11:02:47;100003.84;;;12.06;65.30
21594;BME280;10959;51.328;7.322;2024-01-30T11:05:15;100006.34;;;12.20;65.10
21594;BME280;10959;51.328;7.322;2024-01-30T11:07:49;100008.97;;;12.38;64.99
21594;BME280;10959;51.328;7.322;2024-01-30T11:10:15;100022.91;;;12.53;64.87
21594;BME280;10959;51.328;7.322;2024-01-30T11:12:42;100012.88;;;12.65;64.69
21594;BME280;10959;51.328;7.322;2024-01-30T11:15:12;100016.31;;;12.72;64.42
21594;BME280;10959;51.328;7.322;2024-01-30T11:17:41;100000.50;;;12.69;64.31
21594;BME280;10959;51.328;7.322;2024-01-30T11:20:10;100011.69;;;12.73;64.53
21594;BME280;10959;51.328;7.322;2024-01-30T11:22:37;100012.97;;;12.70;64.13
21594;BME280;10959;51.328;7.322;2024-01-30T11:25:04;100029.41;;;12.75;64.07
21594;BME280;10959;51.328;7.322;2024-01-30T11:27:30;100027.03;;;12.79;64.09
21594;BME280;10959;51.328;7.322;2024-01-30T11:30:01;100032.81;;;12.82;64.03
21594;BME280;10959;51.328;7.322;2024-01-30T11:32:29;100021.47;;;12.85;64.04
21594;BME280;10959;51.328;7.322;2024-01-30T11:34:55;100020.16;;;12.88;64.08
21594;BME280;10959;51.328;7.322;2024-01-30T11:37:25;100018.75;;;12.97;63.75
21594;BME280;10959;51.328;7.322;2024-01-30T11:39:53;100014.00;;;13.04;63.75
21594;BME280;10959;51.328;7.322;2024-01-30T11:42:22;100012.72;;;13.06;63.72
21594;BME280;10959;51.328;7.322;2024-01-30T11:44:50;100006.22;;;13.07;63.49
21594;BME280;10959;51.328;7.322;2024-01-30T11:47:16;100004.38;;;13.08;63.78
21594;BME280;10959;51.328;7.322;2024-01-30T11:49:44;100008.94;;;13.07;63.64
21594;BME280;10959;51.328;7.322;2024-01-30T11:52:11;100005.16;;;13.08;63.85
21594;BME280;10959;51.328;7.322;2024-01-30T11:54:39;100004.00;;;13.04;63.69
21594;BME280;10959;51.328;7.322;2024-01-30T11:57:06;100011.03;;;13.05;63.67
21594;BME280;10959;51.328;7.322;2024-01-30T11:59:32;100010.59;;;13.08;63.75
21594;BME280;10959;51.328;7.322;2024-01-30T12:01:59;100012.25;;;13.09;63.87
21594;BME280;10959;51.328;7.322;2024-01-30T12:04:28;100011.78;;;13.12;63.78
21594;BME280;10959;51.328;7.322;2024-01-30T12:06:56;100018.63;;;13.15;63.79
21594;BME280;10959;51.328;7.322;2024-01-30T12:09:22;100024.41;;;13.18;63.73
21594;BME280;10959;51.328;7.322;2024-01-30T12:11:49;100015.31;;;13.25;63.79
21594;BME280;10959;51.328;7.322;2024-01-30T12:14:16;100019.19;;;13.29;63.68
21594;BME280;10959;51.328;7.322;2024-01-30T12:16:48;100016.84;;;13.32;63.40
21594;BME280;10959;51.328;7.322;2024-01-30T12:19:21;100023.88;;;13.33;63.72
21594;BME280;10959;51.328;7.322;2024-01-30T12:21:47;100035.59;;;13.34;63.61
21594;BME280;10959;51.328;7.322;2024-01-30T12:24:21;100028.66;;;13.26;63.73
21594;BME280;10959;51.328;7.322;2024-01-30T12:26:48;100027.22;;;13.24;63.98
21594;BME280;10959;51.328;7.322;2024-01-30T12:29:15;100027.94;;;13.19;64.06
21594;BME280;10959;51.328;7.322;2024-01-30T12:31:42;100033.03;;;13.15;64.34
21594;BME280;10959;51.328;7.322;2024-01-30T12:34:09;100026.41;;;13.11;64.48
21594;BME280;10959;51.328;7.322;2024-01-30T12:36:35;100026.91;;;13.08;64.70
21594;BME280;10959;51.328;7.322;2024-01-30T12:39:02;100037.16;;;13.06;65.00
21594;BME280;10959;51.328;7.322;2024-01-30T12:41:30;100031.63;;;13.01;65.10
21594;BME280;10959;51.328;7.322;2024-01-30T12:43:57;100026.41;;;13.00;65.16
21594;BME280;10959;51.328;7.322;2024-01-30T12:46:27;100029.47;;;13.03;65.22
21594;BME280;10959;51.328;7.322;2024-01-30T12:48:53;100029.72;;;13.02;65.31
21594;BME280;10959;51.328;7.322;2024-01-30T12:51:20;100035.63;;;12.99;65.35
21594;BME280;10959;51.328;7.322;2024-01-30T12:53:46;100041.88;;;12.99;65.42
21594;BME280;10959;51.328;7.322;2024-01-30T12:56:13;100046.63;;;12.92;65.48
21594;BME280;10959;51.328;7.322;2024-01-30T12:58:42;100037.06;;;12.90;65.48
21594;BME280;10959;51.328;7.322;2024-01-30T13:01:09;100044.38;;;12.89;65.45